Time;durP1;ratioP1;P1;durP2;ratioP2;P2;SDS_P1;SDS_P2;PMS_P1;PMS_P2;Temp;Humidity;BMP_temperature;BMP_pressure;BME280_temperature;BME280_humidity;BME280_pressure;Samples;Min_cycle;Max_cycle;Signal;HPM_P1;HPM_P2
2023/11/25 00:02:09;;;;;;;;;;;;;;;14.36;66.92;97424.03;5092230;28;20320;-76
2023/11/25 00:04:34;;;;;;;;;;;;;;;14.37;66.72;97412.38;5092083;28;20045;-77
2023/11/25 00:07:00;;;;;;;;;;;;;;;14.36;66.85;97412.63;5092365;28;19916;-77
2023/11/25 00:09:25;;;;;;;;;;;;;;;14.36;67.05;97415.28;5074146;28;20297;-78
2023/11/25 00:11:50;;;;;;;;;;;;;;;14.34;67.21;97426.16;5092146;28;19916;-76
2023/11/25 00:14:16;;;;;;;;;;;;;;;14.34;66.29;97417.38;5092339;28;19947;-77
2023/11/25 00:16:41;;;;;;;;;;;;;;;14.34;66.11;97407.56;5092322;28;19916;-77
2023/11/25 00:19:06;;;;;;;;;;;;;;;14.37;66.34;97414.22;5092094;28;19973;-77
2023/11/25 00:21:32;;;;;;;;;;;;;;;14.41;66.24;97410.81;5092342;28;19919;-78
2023/11/25 00:23:57;;;;;;;;;;;;;;;14.42;65.52;97403.66;5092258;28;19918;-78
2023/11/25 00:26:24;;;;;;;;;;;;;;;14.46;65.57;97413.53;5092133;28;20007;-78
2023/11/25 00:28:49;;;;;;;;;;;;;;;14.48;65.24;97406.13;5092492;28;19959;-77
2023/11/25 00:31:15;;;;;;;;;;;;;;;14.50;65.07;97411.16;5092412;28;19923;-78
2023/11/25 00:33:40;;;;;;;;;;;;;;;14.52;65.18;97406.41;5092181;28;20312;-77
2023/11/25 00:36:06;;;;;;;;;;;;;;;14.56;65.29;97399.53;5091925;28;20007;-76
2023/11/25 00:38:31;;;;;;;;;;;;;;;14.59;65.01;97389.19;5092072;28;19961;-76
2023/11/25 00:40:58;;;;;;;;;;;;;;;14.62;64.84;97390.53;5092277;28;19923;-76
2023/11/25 00:43:23;;;;;;;;;;;;;;;14.62;63.99;97380.72;5092504;28;20065;-76
2023/11/25 00:45:49;;;;;;;;;;;;;;;14.66;64.25;97361.59;5092723;28;20400;-76
2023/11/25 00:48:15;;;;;;;;;;;;;;;14.67;64.62;97356.03;5091931;28;20062;-77
2023/11/25 00:50:41;;;;;;;;;;;;;;;14.69;64.15;97359.22;5091751;28;19913;-76
2023/11/25 00:53:07;;;;;;;;;;;;;;;14.74;63.87;97359.25;5091769;28;19969;-77
2023/11/25 00:55:32;;;;;;;;;;;;;;;14.74;63.65;97351.28;5091623;28;19912;-77
2023/11/25 00:57:58;;;;;;;;;;;;;;;14.77;63.25;97345.47;5091684;28;20456;-77
2023/11/25 01:00:26;;;;;;;;;;;;;;;14.77;63.79;97337.50;5091608;28;20393;-77
2023/11/25 01:02:51;;;;;;;;;;;;;;;14.78;64.01;97325.00;5092134;28;19916;-76
2023/11/25 01:05:17;;;;;;;;;;;;;;;14.80;63.77;97334.31;5091859;28;19972;-76
2023/11/25 01:07:42;;;;;;;;;;;;;;;14.81;63.06;97324.50;5091706;28;19920;-78
2023/11/25 01:10:08;;;;;;;;;;;;;;;14.81;63.28;97308.56;5091536;28;19947;-76
2023/11/25 01:12:35;;;;;;;;;;;;;;;14.81;63.17;97303.25;5091536;28;19990;-78
2023/11/25 01:15:00;;;;;;;;;;;;;;;14.81;62.86;97303.25;5091471;28;20297;-77
2023/11/25 01:17:26;;;;;;;;;;;;;;;14.79;63.11;97300.84;5093662;28;19919;-77
2023/11/25 01:19:52;;;;;;;;;;;;;;;14.79;63.09;97302.69;5095349;28;19928;-77
2023/11/25 01:22:17;;;;;;;;;;;;;;;14.76;62.95;97301.38;5095350;28;19912;-77
2023/11/25 01:24:44;;;;;;;;;;;;;;;14.78;63.55;97296.59;5076834;28;20335;-77
2023/11/25 01:27:10;;;;;;;;;;;;;;;14.78;62.72;97287.81;5095344;28;19955;-76
2023/11/25 01:29:35;;;;;;;;;;;;;;;14.79;62.17;97281.44;5095696;28;19918;-77
2023/11/25 01:32:00;;;;;;;;;;;;;;;14.80;62.53;97269.75;5095672;28;20018;-77
2023/11/25 01:34:26;;;;;;;;;;;;;;;14.81;63.06;97268.72;5095370;28;20377;-77
2023/11/25 01:36:52;;;;;;;;;;;;;;;14.79;62.76;97270.81;5095526;28;19920;-77
2023/11/25 01:39:17;;;;;;;;;;;;;;;14.78;62.75;97279.84;5093832;28;19912;-77
2023/11/25 01:41:45;;;;;;;;;;;;;;;14.80;63.45;97281.19;5095104;28;19935;-76
2023/11/25 01:44:12;;;;;;;;;;;;;;;14.76;62.29;97274.81;5095039;28;19913;-77
2023/11/25 01:46:38;;;;;;;;;;;;;;;14.79;63.26;97268.16;5094950;28;19912;-76
2023/11/25 01:49:09;;;;;;;;;;;;;;;14.78;63.13;97287.81;5076820;28;19912;-76
2023/11/25 01:51:38;;;;;;;;;;;;;;;14.79;63.14;97271.63;5094728;28;19962;-76
2023/11/25 01:54:04;;;;;;;;;;;;;;;14.76;63.02;97258.06;5076967;28;20006;-77
2023/11/25 01:56:30;;;;;;;;;;;;;;;14.77;63.26;97255.16;5093579;28;20002;-77
2023/11/25 01:58:57;;;;;;;;;;;;;;;14.76;62.57;97248.25;5095093;28;19912;-77
2023/11/25 02:01:24;;;;;;;;;;;;;;;14.75;62.82;97235.22;5076862;28;20487;-77
2023/11/25 02:03:49;;;;;;;;;;;;;;;14.75;62.71;97249.28;5076776;28;19999;-76
2023/11/25 02:06:14;;;;;;;;;;;;;;;14.75;62.62;97237.88;5094940;28;19946;-76
2023/11/25 02:08:42;;;;;;;;;;;;;;;14.74;62.97;97242.38;5094594;28;19970;-77
2023/11/25 02:11:07;;;;;;;;;;;;;;;14.76;62.80;97239.47;5094405;28;19943;-77
2023/11/25 02:13:33;;;;;;;;;;;;;;;14.75;62.67;97235.22;5076273;28;19944;-78
2023/11/25 02:15:58;;;;;;;;;;;;;;;14.75;62.81;97227.25;5094425;28;19950;-78
2023/11/25 02:18:25;;;;;;;;;;;;;;;14.75;62.79;97230.69;5094190;28;20392;-78
2023/11/25 02:20:50;;;;;;;;;;;;;;;14.75;62.50;97219.28;5094481;28;20400;-77
2023/11/25 02:23:17;;;;;;;;;;;;;;;14.75;62.11;97217.41;5094455;28;19913;-77
2023/11/25 02:25:49;;;;;;;;;;;;;;;14.74;62.64;97221.13;5076539;28;19934;-76
2023/11/25 02:28:15;;;;;;;;;;;;;;;14.74;62.36;97221.13;5075238;28;20010;-76
2023/11/25 02:30:42;;;;;;;;;;;;;;;14.76;62.86;97218.22;5076478;28;19958;-77
2023/11/25 02:33:08;;;;;;;;;;;;;;;14.77;63.04;97212.66;5094341;28;19912;-77
2023/11/25 02:35:34;;;;;;;;;;;;;;;14.78;62.79;97210.78;5092674;28;20400;-77
2023/11/25 02:38:00;;;;;;;;;;;;;;;14.76;62.18;97205.72;5094196;28;19993;-77
2023/11/25 02:40:25;;;;;;;;;;;;;;;14.77;62.38;97207.34;5093895;28;20384;-78
2023/11/25 02:42:50;;;;;;;;;;;;;;;14.76;61.94;97199.63;5093749;28;19920;-76
2023/11/25 02:45:19;;;;;;;;;;;;;;;14.75;62.32;97198.03;5093545;28;19912;-77
2023/11/25 02:47:46;;;;;;;;;;;;;;;14.75;62.58;97195.38;5093432;28;20437;-76
2023/11/25 02:50:12;;;;;;;;;;;;;;;14.72;61.86;97198.56;5093527;28;19928;-77
2023/11/25 02:52:38;;;;;;;;;;;;;;;14.69;62.04;97191.09;5093697;28;19919;-77
2023/11/25 02:55:04;;;;;;;;;;;;;;;14.67;62.17;97180.75;5093788;28;19912;-77
2023/11/25 02:57:31;;;;;;;;;;;;;;;14.66;62.23;97181.81;5075757;28;19989;-76
2023/11/25 02:59:59;;;;;;;;;;;;;;;14.66;62.25;97175.69;5093833;28;19912;-77
2023/11/25 03:02:24;;;;;;;;;;;;;;;14.63;62.11;97177.03;5093889;28;19912;-78
2023/11/25 03:04:50;;;;;;;;;;;;;;;14.61;62.04;97177.28;5092370;28;19966;-77
2023/11/25 03:07:15;;;;;;;;;;;;;;;14.59;62.65;97168.78;5093393;28;19916;-76
2023/11/25 03:09:42;;;;;;;;;;;;;;;14.56;62.63;97166.63;5093116;28;19912;-77
2023/11/25 03:12:09;;;;;;;;;;;;;;;14.55;62.64;97151.78;5093160;28;19916;-77
2023/11/25 03:14:34;;;;;;;;;;;;;;;14.54;62.47;97150.19;5093073;28;20411;-77
2023/11/25 03:16:59;;;;;;;;;;;;;;;14.56;62.66;97140.09;5093089;28;19990;-77
2023/11/25 03:19:25;;;;;;;;;;;;;;;14.56;62.74;97131.31;5092988;28;20332;-77
2023/11/25 03:21:52;;;;;;;;;;;;;;;14.57;62.82;97127.59;5093111;28;19962;-77
2023/11/25 03:24:18;;;;;;;;;;;;;;;14.57;62.58;97117.00;5093068;28;20446;-77
2023/11/25 03:26:43;;;;;;;;;;;;;;;14.55;62.83;97103.97;5093020;28;19912;-77
2023/11/25 03:29:09;;;;;;;;;;;;;;;14.55;62.98;97096.00;5093030;28;19919;-77
2023/11/25 03:31:41;;;;;;;;;;;;;;;14.56;62.50;97091.50;5092997;28;19959;-78
2023/11/25 03:34:06;;;;;;;;;;;;;;;14.56;62.98;97089.63;5092929;28;19912;-76
2023/11/25 03:36:31;;;;;;;;;;;;;;;14.58;62.61;97087.50;5092818;28;19919;-77
2023/11/25 03:38:57;;;;;;;;;;;;;;;14.59;62.66;97083.00;5092579;28;19919;-78
2023/11/25 03:41:23;;;;;;;;;;;;;;;14.60;62.60;97076.63;5092502;28;20338;-78
2023/11/25 03:43:48;;;;;;;;;;;;;;;14.61;63.03;97067.59;5092638;28;20406;-77
2023/11/25 03:46:13;;;;;;;;;;;;;;;14.64;62.95;97069.72;5074463;28;19912;-77
2023/11/25 03:48:39;;;;;;;;;;;;;;;14.65;62.53;97062.56;5074376;28;19924;-76
2023/11/25 03:51:05;;;;;;;;;;;;;;;14.66;62.58;97053.53;5091332;28;19916;-77
2023/11/25 03:53:31;;;;;;;;;;;;;;;14.67;62.17;97055.13;5092497;28;20011;-77
2023/11/25 03:55:59;;;;;;;;;;;;;;;14.69;62.53;97045.81;5092537;28;20444;-76
2023/11/25 03:58:25;;;;;;;;;;;;;;;14.69;61.86;97035.19;5092284;28;19971;-77
2023/11/25 04:00:50;;;;;;;;;;;;;;;14.74;62.44;97037.06;5092362;28;20378;-77
2023/11/25 04:03:17;;;;;;;;;;;;;;;14.76;62.01;97027.75;5092403;28;20193;-76
2023/11/25 04:05:42;;;;;;;;;;;;;;;14.77;62.11;97018.72;5091047;28;20324;-78
2023/11/25 04:08:07;;;;;;;;;;;;;;;14.78;62.03;97028.28;5074185;28;19923;-77
2023/11/25 04:10:33;;;;;;;;;;;;;;;14.77;62.05;97024.06;5092276;28;20296;-77
2023/11/25 04:12:58;;;;;;;;;;;;;;;14.81;62.12;97016.34;5092177;28;19912;-77
2023/11/25 04:15:23;;;;;;;;;;;;;;;14.82;61.77;97015.28;5074420;28;20024;-78
2023/11/25 04:17:50;;;;;;;;;;;;;;;14.84;62.10;97016.59;5092313;28;19912;-77
2023/11/25 04:20:24;;;;;;;;;;;;;;;14.87;62.13;97028.59;5092248;28;19912;-77
2023/11/25 04:22:49;;;;;;;;;;;;;;;14.87;61.49;97018.75;5091978;28;20381;-77
2023/11/25 04:25:18;;;;;;;;;;;;;;;14.88;61.71;97036.28;5091909;28;19965;-77
2023/11/25 04:27:46;;;;;;;;;;;;;;;14.89;61.90;97035.22;5091627;28;20007;-77
2023/11/25 04:30:13;;;;;;;;;;;;;;;14.91;61.86;97027.78;5091834;28;20408;-77
2023/11/25 04:32:39;;;;;;;;;;;;;;;14.91;61.54;97022.47;5092055;28;19965;-77
2023/11/25 04:35:05;;;;;;;;;;;;;;;14.92;61.64;97016.09;5091962;28;20345;-77
2023/11/25 04:37:31;;;;;;;;;;;;;;;14.94;61.97;97013.19;5092222;28;19965;-77
2023/11/25 04:39:56;;;;;;;;;;;;;;;14.93;62.05;97006.25;5091948;28;20377;-77
2023/11/25 04:42:21;;;;;;;;;;;;;;;14.94;62.30;97007.84;5091787;28;19919;-77
2023/11/25 04:44:47;;;;;;;;;;;;;;;14.93;61.82;96996.44;5091876;28;20366;-77
2023/11/25 04:47:12;;;;;;;;;;;;;;;14.93;61.90;96998.28;5091531;28;19917;-78
2023/11/25 04:49:39;;;;;;;;;;;;;;;15.01;61.87;96986.31;5091971;28;20331;-78
2023/11/25 04:52:04;;;;;;;;;;;;;;;14.96;62.10;96983.69;5093218;28;19912;-77
2023/11/25 04:54:30;;;;;;;;;;;;;;;14.96;61.83;96981.03;5095678;28;19983;-78
2023/11/25 04:56:55;;;;;;;;;;;;;;;14.98;62.35;96984.22;5094953;28;19965;-76
2023/11/25 04:59:20;;;;;;;;;;;;;;;14.96;61.99;96976.50;5095969;28;19912;-78
2023/11/25 05:01:46;;;;;;;;;;;;;;;14.94;62.35;96962.69;5077692;28;20462;-77
2023/11/25 05:04:11;;;;;;;;;;;;;;;14.96;62.02;96970.41;5095736;28;19923;-77
2023/11/25 05:06:36;;;;;;;;;;;;;;;14.95;62.08;96966.94;5095769;28;19951;-77
2023/11/25 05:09:04;;;;;;;;;;;;;;;14.95;61.99;96969.59;5094604;28;19916;-77
2023/11/25 05:11:30;;;;;;;;;;;;;;;14.99;62.24;96975.97;5094247;28;19938;-77
2023/11/25 05:13:57;;;;;;;;;;;;;;;14.96;61.94;96955.25;5095421;28;20375;-77
2023/11/25 05:16:23;;;;;;;;;;;;;;;15.00;62.44;96953.66;5077270;28;19955;-77
2023/11/25 05:18:48;;;;;;;;;;;;;;;14.98;62.29;96954.97;5095401;28;20431;-77
2023/11/25 05:21:13;;;;;;;;;;;;;;;14.97;62.29;96951.53;5095618;28;19912;-77
2023/11/25 05:23:39;;;;;;;;;;;;;;;14.97;62.19;96943.56;5095711;28;19912;-78
2023/11/25 05:26:05;;;;;;;;;;;;;;;14.98;62.27;96949.66;5095379;28;19912;-78
2023/11/25 05:28:30;;;;;;;;;;;;;;;14.98;62.09;96944.34;5095198;28;20057;-77
2023/11/25 05:30:55;;;;;;;;;;;;;;;14.97;62.47;96946.22;5093920;28;19912;-77
2023/11/25 05:33:21;;;;;;;;;;;;;;;14.97;62.19;96934.78;5095175;28;19916;-78
2023/11/25 05:35:47;;;;;;;;;;;;;;;14.96;62.16;96939.31;5095133;28;19912;-77
2023/11/25 05:38:12;;;;;;;;;;;;;;;14.97;62.68;96924.97;5095138;28;19911;-77
2023/11/25 05:40:38;;;;;;;;;;;;;;;14.97;62.59;96929.47;5076820;28;19918;-77
2023/11/25 05:43:03;;;;;;;;;;;;;;;14.94;62.46;96925.50;5095046;28;19965;-77
2023/11/25 05:45:30;;;;;;;;;;;;;;;14.94;62.41;96928.16;5094952;28;19916;-77
2023/11/25 05:47:56;;;;;;;;;;;;;;;14.91;62.82;96926.03;5094757;28;19916;-77
2023/11/25 05:50:22;;;;;;;;;;;;;;;14.94;62.76;96909.56;5095008;28;19912;-76
2023/11/25 05:52:47;;;;;;;;;;;;;;;14.93;62.54;96911.41;5094601;28;20346;-77
2023/11/25 05:55:14;;;;;;;;;;;;;;;14.94;62.91;96901.59;5076269;28;19912;-77
2023/11/25 05:57:40;;;;;;;;;;;;;;;14.94;62.61;96896.28;5094567;28;19966;-76
2023/11/25 06:00:11;;;;;;;;;;;;;;;14.95;62.99;96895.22;5093138;28;19940;-77
2023/11/25 06:02:37;;;;;;;;;;;;;;;14.94;62.96;96901.59;5094463;28;19912;-77
2023/11/25 06:05:03;;;;;;;;;;;;;;;14.97;63.00;96902.91;5094488;28;19965;-77
2023/11/25 06:07:29;;;;;;;;;;;;;;;14.99;62.54;96908.75;5094420;28;19999;-77
2023/11/25 06:09:54;;;;;;;;;;;;;;;14.98;62.98;96901.84;5094526;28;19952;-78
2023/11/25 06:12:19;;;;;;;;;;;;;;;14.99;62.71;96903.44;5094561;28;20416;-77
2023/11/25 06:14:44;;;;;;;;;;;;;;;14.98;62.99;96905.28;5094559;28;20282;-77
2023/11/25 06:17:10;;;;;;;;;;;;;;;15.00;62.68;96903.16;5075980;28;19912;-78
2023/11/25 06:19:36;;;;;;;;;;;;;;;15.00;63.10;96897.06;5094014;28;20322;-78
2023/11/25 06:22:04;;;;;;;;;;;;;;;15.02;63.00;96885.09;5076085;28;20297;-77
2023/11/25 06:24:29;;;;;;;;;;;;;;;15.03;63.18;96892.00;5094307;28;19912;-78
2023/11/25 06:26:55;;;;;;;;;;;;;;;15.10;62.62;96903.13;5094199;28;19935;-77
2023/11/25 06:29:20;;;;;;;;;;;;;;;15.11;63.10;96901.25;5094054;28;19951;-77
2023/11/25 06:31:46;;;;;;;;;;;;;;;15.13;63.12;96893.81;5094257;28;19912;-77
2023/11/25 06:34:11;;;;;;;;;;;;;;;15.17;62.76;96895.66;5075973;28;19943;-78
2023/11/25 06:36:37;;;;;;;;;;;;;;;15.16;63.29;96893.28;5093949;28;19915;-77
2023/11/25 06:39:04;;;;;;;;;;;;;;;15.22;63.03;96889.53;5094031;28;19950;-77
2023/11/25 06:41:29;;;;;;;;;;;;;;;15.19;63.05;96896.19;5094168;28;19911;-78
2023/11/25 06:43:55;;;;;;;;;;;;;;;15.20;63.90;96900.44;5075840;28;19966;-77
2023/11/25 06:46:22;;;;;;;;;;;;;;;15.21;63.75;96902.03;5075963;28;19991;-77
2023/11/25 06:48:47;;;;;;;;;;;;;;;15.24;63.44;96908.66;5094204;28;19916;-77
2023/11/25 06:51:13;;;;;;;;;;;;;;;15.28;63.11;96901.72;5075911;28;20372;-77
2023/11/25 06:53:41;;;;;;;;;;;;;;;15.26;63.62;96896.69;5093820;28;19919;-77
2023/11/25 06:56:10;;;;;;;;;;;;;;;15.29;63.45;96894.53;5093771;28;19998;-77
2023/11/25 06:58:36;;;;;;;;;;;;;;;15.28;63.72;96888.44;5093501;28;19919;-77
2023/11/25 07:01:04;;;;;;;;;;;;;;;15.31;63.22;96887.88;5093504;28;19916;-76
2023/11/25 07:03:30;;;;;;;;;;;;;;;15.33;63.65;96879.63;5093662;28;19912;-76
2023/11/25 07:05:56;;;;;;;;;;;;;;;15.30;63.79;96873.00;5093473;28;19919;-77
2023/11/25 07:08:21;;;;;;;;;;;;;;;15.33;63.64;96871.66;5075090;28;19916;-76
2023/11/25 07:10:53;;;;;;;;;;;;;;;15.36;63.60;96876.44;5075282;28;20003;-77
2023/11/25 07:13:19;;;;;;;;;;;;;;;14.85;63.38;96794.25;5093307;28;19951;-77
2023/11/25 07:15:44;;;;;;;;;;;;;;;15.42;63.34;96883.31;5092812;28;19951;-77
2023/11/25 07:18:12;;;;;;;;;;;;;;;15.44;63.44;96889.16;5092929;28;19989;-76
2023/11/25 07:20:38;;;;;;;;;;;;;;;15.47;63.50;96889.41;5091798;28;19916;-77
2023/11/25 07:23:03;;;;;;;;;;;;;;;15.50;63.58;96885.41;5092979;28;20281;-77
2023/11/25 07:25:29;;;;;;;;;;;;;;;15.53;63.35;96875.00;5092965;28;19991;-77
2023/11/25 07:27:54;;;;;;;;;;;;;;;15.54;63.37;96873.94;5074463;28;19955;-77
2023/11/25 07:30:20;;;;;;;;;;;;;;;15.57;63.28;96864.63;5092689;28;19912;-76
2023/11/25 07:32:45;;;;;;;;;;;;;;;15.58;63.53;96856.41;5093026;28;20294;-77
2023/11/25 07:35:10;;;;;;;;;;;;;;;15.59;63.37;96865.16;5092955;28;19912;-77
2023/11/25 07:37:39;;;;;;;;;;;;;;;15.60;63.42;96874.72;5092728;28;19962;-77
2023/11/25 07:40:15;;;;;;;;;;;;;;;15.64;63.39;96867.81;5092669;28;19919;-77
2023/11/25 07:42:43;;;;;;;;;;;;;;;15.67;63.09;96872.59;5092554;28;19912;-77
2023/11/25 07:45:09;;;;;;;;;;;;;;;15.68;62.83;96863.53;5092551;28;19919;-77
2023/11/25 07:47:35;;;;;;;;;;;;;;;15.73;62.68;96852.06;5092475;28;19973;-78
2023/11/25 07:50:00;;;;;;;;;;;;;;;15.74;63.07;96853.66;5074669;28;19912;-78
2023/11/25 07:52:26;;;;;;;;;;;;;;;15.78;62.86;96854.69;5092509;28;19912;-78
2023/11/25 07:54:51;;;;;;;;;;;;;;;15.80;62.49;96852.56;5092682;28;19926;-77
2023/11/25 07:57:17;;;;;;;;;;;;;;;15.83;62.70;96865.31;5092392;28;19920;-77
2023/11/25 07:59:42;;;;;;;;;;;;;;;15.85;62.73;96850.66;5092187;28;19916;-78
2023/11/25 08:02:08;;;;;;;;;;;;;;;15.87;62.68;96853.03;5092396;28;19955;-78
2023/11/25 08:04:33;;;;;;;;;;;;;;;15.91;62.45;96859.41;5092506;28;19999;-78
2023/11/25 08:06:58;;;;;;;;;;;;;;;15.87;62.25;96848.50;5092317;28;19950;-77
2023/11/25 08:09:24;;;;;;;;;;;;;;;15.89;62.58;96842.91;5092675;28;20023;-77
2023/11/25 08:11:49;;;;;;;;;;;;;;;15.90;62.51;96849.81;5092327;28;19919;-77
2023/11/25 08:14:14;;;;;;;;;;;;;;;15.91;62.26;96853.28;5092299;28;19935;-78
2023/11/25 08:16:40;;;;;;;;;;;;;;;15.91;62.45;96854.06;5092596;28;19966;-76
2023/11/25 08:19:05;;;;;;;;;;;;;;;15.93;62.07;96857.25;5074114;28;20298;-78
2023/11/25 08:21:30;;;;;;;;;;;;;;;15.93;62.13;96851.13;5092354;28;19912;-78
2023/11/25 08:23:56;;;;;;;;;;;;;;;15.92;61.62;96844.22;5092096;28;20416;-77
2023/11/25 08:26:22;;;;;;;;;;;;;;;15.91;62.20;96835.44;5091207;28;19962;-76
2023/11/25 08:28:49;;;;;;;;;;;;;;;15.90;62.49;96831.19;5091919;28;19916;-78
2023/11/25 08:31:15;;;;;;;;;;;;;;;15.90;62.50;96823.22;5091950;28;19969;-76
2023/11/25 08:33:41;;;;;;;;;;;;;;;15.89;62.30;96829.59;5092153;28;20002;-75
2023/11/25 08:36:07;;;;;;;;;;;;;;;15.93;62.34;96827.19;5073771;28;19999;-78
2023/11/25 08:38:32;;;;;;;;;;;;;;;15.92;62.69;96828.25;5091788;28;20465;-78
2023/11/25 08:40:57;;;;;;;;;;;;;;;15.92;62.63;96826.38;5091660;28;19912;-77
2023/11/25 08:43:23;;;;;;;;;;;;;;;15.97;62.17;96823.69;5091784;28;19912;-76
2023/11/25 08:45:49;;;;;;;;;;;;;;;16.00;62.28;96811.69;5091758;28;19916;-77
2023/11/25 08:48:14;;;;;;;;;;;;;;;15.99;62.56;96813.56;5091682;28;19963;-76
2023/11/25 08:50:40;;;;;;;;;;;;;;;16.01;62.56;96802.63;5092095;28;20407;-77
2023/11/25 08:53:05;;;;;;;;;;;;;;;16.02;61.55;96797.03;5091608;28;19951;-78
2023/11/25 08:55:30;;;;;;;;;;;;;;;16.06;62.00;96795.41;5073457;28;19995;-77
2023/11/25 08:57:56;;;;;;;;;;;;;;;16.08;62.13;96792.47;5091648;28;19912;-77
2023/11/25 09:00:22;;;;;;;;;;;;;;;16.09;61.71;96794.03;5091541;28;20447;-77
2023/11/25 09:02:50;;;;;;;;;;;;;;;16.09;61.92;96802.81;5091509;28;19915;-77
2023/11/25 09:05:15;;;;;;;;;;;;;;;16.04;61.97;96820.69;5091520;28;20002;-77
2023/11/25 09:07:41;;;;;;;;;;;;;;;15.88;61.77;96815.50;5091596;28;20007;-77
2023/11/25 09:10:07;;;;;;;;;;;;;;;15.76;61.80;96811.63;5091731;28;19912;-78
2023/11/25 09:12:33;;;;;;;;;;;;;;;15.60;62.22;96815.44;5073648;28;20463;-76
2023/11/25 09:14:59;;;;;;;;;;;;;;;15.39;62.43;96812.88;5091857;28;19912;-76
2023/11/25 09:17:25;;;;;;;;;;;;;;;15.24;63.12;96813.75;5091528;28;20061;-77
2023/11/25 09:19:50;;;;;;;;;;;;;;;15.07;63.35;96815.19;5091525;28;19928;-78
2023/11/25 09:22:16;;;;;;;;;;;;;;;14.94;63.95;96813.91;5091812;28;20495;-76
2023/11/25 09:24:41;;;;;;;;;;;;;;;14.85;63.87;96826.13;5091865;28;19916;-76
2023/11/25 09:27:06;;;;;;;;;;;;;;;14.73;64.06;96825.66;5091630;28;19923;-76
2023/11/25 09:29:34;;;;;;;;;;;;;;;14.60;64.55;96834.97;5091422;28;19912;-77
2023/11/25 09:31:59;;;;;;;;;;;;;;;14.48;64.84;96843.25;5091818;28;19943;-76
2023/11/25 09:34:24;;;;;;;;;;;;;;;14.24;65.13;96842.19;5090269;28;20422;-76
2023/11/25 09:36:50;;;;;;;;;;;;;;;14.17;65.28;96853.06;5091860;28;19912;-76
2023/11/25 09:39:15;;;;;;;;;;;;;;;13.99;65.95;96853.59;5094480;28;20354;-76
2023/11/25 09:41:40;;;;;;;;;;;;;;;13.99;65.89;96861.53;5076680;28;19912;-77
2023/11/25 09:44:08;;;;;;;;;;;;;;;13.94;66.30;96865.00;5094989;28;19919;-77
2023/11/25 09:46:34;;;;;;;;;;;;;;;13.89;66.23;96867.63;5094853;28;19919;-77
2023/11/25 09:49:00;;;;;;;;;;;;;;;13.83;66.33;96874.00;5094732;28;19969;-76
2023/11/25 09:51:26;;;;;;;;;;;;;;;13.79;66.15;96872.13;5094782;28;20355;-77
2023/11/25 09:53:56;;;;;;;;;;;;;;;13.72;66.66;96876.91;5075213;28;19923;-76
2023/11/25 09:56:22;;;;;;;;;;;;;;;13.71;66.21;96868.16;5094774;28;19919;-77
2023/11/25 09:58:48;;;;;;;;;;;;;;;13.68;66.20;96889.88;5094804;28;19905;-77
2023/11/25 10:01:14;;;;;;;;;;;;;;;13.59;66.21;96891.47;5095354;28;19912;-77
2023/11/25 10:03:42;;;;;;;;;;;;;;;13.50;66.48;96896.47;5094770;28;19912;-77
2023/11/25 10:06:08;;;;;;;;;;;;;;;13.41;66.56;96868.88;5094918;28;19958;-77
2023/11/25 10:08:34;;;;;;;;;;;;;;;13.18;66.89;96872.78;5094500;28;19974;-76
2023/11/25 10:11:07;;;;;;;;;;;;;;;13.08;67.33;96877.19;5094318;28;19919;-76
2023/11/25 10:13:42;;;;;;;;;;;;;;;13.07;66.93;96883.56;5094222;28;20474;-77
2023/11/25 10:16:08;;;;;;;;;;;;;;;12.98;67.42;96878.75;5094105;28;20309;-76
2023/11/25 10:18:37;;;;;;;;;;;;;;;13.00;67.32;96874.00;5094266;28;19920;-77
2023/11/25 10:21:05;;;;;;;;;;;;;;;13.01;67.47;96867.63;5094407;28;19912;-77
2023/11/25 10:23:31;;;;;;;;;;;;;;;12.95;68.15;96873.19;5094180;28;20012;-77
2023/11/25 10:25:59;;;;;;;;;;;;;;;12.96;68.05;96888.81;5094441;28;19912;-76
2023/11/25 10:28:30;;;;;;;;;;;;;;;12.97;67.98;96876.38;5094082;28;19916;-77
2023/11/25 10:30:56;;;;;;;;;;;;;;;12.89;69.29;96876.84;5075896;28;20320;-77
2023/11/25 10:33:24;;;;;;;;;;;;;;;12.84;70.11;96882.13;5075841;28;19922;-76
2023/11/25 10:35:50;;;;;;;;;;;;;;;12.79;69.87;96890.03;5093999;28;19934;-75
2023/11/25 10:38:21;;;;;;;;;;;;;;;12.70;69.96;96879.16;5094157;28;20440;-77
2023/11/25 10:40:48;;;;;;;;;;;;;;;12.70;71.79;96879.94;5093712;28;19912;-77
2023/11/25 10:43:14;;;;;;;;;;;;;;;12.57;71.06;96876.91;5093838;28;20444;-76
2023/11/25 10:45:39;;;;;;;;;;;;;;;12.56;72.03;96899.16;5075538;28;19963;-77
2023/11/25 10:48:07;;;;;;;;;;;;;;;12.56;71.37;96883.28;5075303;28;19923;-76
2023/11/25 10:50:33;;;;;;;;;;;;;;;12.48;69.98;96886.41;5092500;28;19916;-77
2023/11/25 10:52:58;;;;;;;;;;;;;;;12.35;69.39;96888.44;5093439;28;19934;-75
2023/11/25 10:55:26;;;;;;;;;;;;;;;12.13;68.94;96906.25;5093383;28;20409;-76
2023/11/25 10:57:52;;;;;;;;;;;;;;;12.07;69.92;96889.53;5075291;28;19961;-76
2023/11/25 11:00:19;;;;;;;;;;;;;;;12.00;69.83;96896.09;5075284;28;19912;-75
2023/11/25 11:02:56;;;;;;;;;;;;;;;11.92;69.36;96892.06;5075143;28;19919;-76
2023/11/25 11:05:27;;;;;;;;;;;;;;;11.85;69.48;96891.44;5093390;28;19912;-76
2023/11/25 11:07:59;;;;;;;;;;;;;;;11.77;69.64;96883.94;5093460;28;19916;-76
2023/11/25 11:10:30;;;;;;;;;;;;;;;11.69;69.77;96882.53;5093576;28;19991;-75
2023/11/25 11:13:02;;;;;;;;;;;;;;;11.72;70.44;96878.59;5093729;28;19912;-76
2023/11/25 11:15:30;;;;;;;;;;;;;;;11.75;70.73;96875.44;5093372;28;19923;-75
2023/11/25 11:17:55;;;;;;;;;;;;;;;11.80;70.37;96875.53;5093363;28;19944;-76
2023/11/25 11:20:22;;;;;;;;;;;;;;;11.80;69.97;96878.16;5093334;28;19962;-75
2023/11/25 11:22:48;;;;;;;;;;;;;;;11.74;69.77;96885.22;5093509;28;19912;-76
2023/11/25 11:25:22;;;;;;;;;;;;;;;11.71;69.91;96901.59;5091908;28;19912;-76
2023/11/25 11:27:59;;;;;;;;;;;;;;;11.66;69.88;96904.19;5074985;28;19923;-77
2023/11/25 11:30:43;;;;;;;;;;;;;;;11.56;70.00;96903.28;5091724;28;19918;-76
2023/11/25 11:33:09;;;;;;;;;;;;;;;11.45;69.89;96894.44;5092972;28;19912;-76
2023/11/25 11:35:37;;;;;;;;;;;;;;;11.47;69.47;96889.72;5092739;28;19919;-78
2023/11/25 11:38:21;;;;;;;;;;;;;;;11.41;69.81;96888.88;5092788;28;20342;-76
2023/11/25 11:40:46;;;;;;;;;;;;;;;11.32;69.35;96894.84;5092711;28;19912;-76
2023/11/25 11:43:18;;;;;;;;;;;;;;;11.27;69.27;96894.78;5092702;28;19924;-76
2023/11/25 11:45:43;;;;;;;;;;;;;;;11.21;69.39;96893.91;5092567;28;20000;-77
2023/11/25 11:48:13;;;;;;;;;;;;;;;11.20;69.52;96889.69;5092803;28;19998;-76
2023/11/25 11:50:41;;;;;;;;;;;;;;;11.13;69.62;96881.13;5092673;28;20361;-76
2023/11/25 11:53:12;;;;;;;;;;;;;;;11.08;69.96;96886.34;5074147;28;19919;-76
2023/11/25 11:55:38;;;;;;;;;;;;;;;11.09;69.57;96878.19;5074056;28;20456;-76
2023/11/25 11:58:10;;;;;;;;;;;;;;;11.07;70.34;96868.91;5092264;28;19912;-77
2023/11/25 12:00:45;;;;;;;;;;;;;;;11.04;69.87;96875.47;5073869;28;19965;-76
2023/11/25 12:03:12;;;;;;;;;;;;;;;10.92;70.36;96874.81;5092337;28;19916;-76
2023/11/25 12:05:40;;;;;;;;;;;;;;;10.98;70.17;96865.91;5092409;28;19942;-77
2023/11/25 12:08:06;;;;;;;;;;;;;;;11.01;70.06;96859.31;5092451;28;19915;-77
2023/11/25 12:10:32;;;;;;;;;;;;;;;11.00;70.25;96870.94;5092457;28;20468;-76
2023/11/25 12:12:57;;;;;;;;;;;;;;;10.99;69.10;96871.97;5092336;28;19961;-77
2023/11/25 12:15:23;;;;;;;;;;;;;;;10.94;69.66;96861.34;5092546;28;19912;-76
2023/11/25 12:17:48;;;;;;;;;;;;;;;10.92;69.80;96871.38;5092162;28;19919;-76
2023/11/25 12:20:14;;;;;;;;;;;;;;;10.97;69.34;96876.69;5092330;28;19919;-76
2023/11/25 12:22:40;;;;;;;;;;;;;;;10.91;69.23;96875.03;5092443;28;19970;-77
2023/11/25 12:25:06;;;;;;;;;;;;;;;10.91;69.21;96877.69;5092295;28;19916;-77
2023/11/25 12:27:33;;;;;;;;;;;;;;;10.84;69.56;96885.78;5092220;28;20406;-77
2023/11/25 12:29:58;;;;;;;;;;;;;;;10.81;69.32;96887.06;5073915;28;19912;-76
2023/11/25 12:32:24;;;;;;;;;;;;;;;10.77;69.32;96885.16;5092167;28;19919;-77
2023/11/25 12:34:50;;;;;;;;;;;;;;;10.74;69.65;96877.75;5091967;28;19912;-76
2023/11/25 12:37:16;;;;;;;;;;;;;;;10.72;69.11;96887.75;5092283;28;19913;-77
2023/11/25 12:39:42;;;;;;;;;;;;;;;10.68;69.44;96887.44;5092476;28;19912;-77
2023/11/25 12:42:08;;;;;;;;;;;;;;;10.73;69.35;96874.28;5074464;28;20321;-77
2023/11/25 12:44:50;;;;;;;;;;;;;;;10.76;69.37;96875.66;5091803;28;19919;-77